Time;durP1;ratioP1;P1;durP2;ratioP2;P2;SDS_P1;SDS_P2;PMS_P1;PMS_P2;Temp;Humidity;BMP_temperature;BMP_pressure;BME280_temperature;BME280_humidity;BME280_pressure;Samples;Min_cycle;Max_cycle;Signal;HPM_P1;HPM_P2
2023/05/24 00:00:34;;;;;;;5.77;4.17;;;13.00;92.80;;;;;;5010528;28;20445;-70
2023/05/24 00:03:03;;;;;;;5.97;4.47;;;13.00;92.90;;;;;;5010351;28;20476;-70
2023/05/24 00:05:31;;;;;;;7.40;4.67;;;13.00;93.10;;;;;;5010046;28;20447;-70
2023/05/24 00:08:00;;;;;;;5.27;4.80;;;13.00;93.20;;;;;;5009939;28;20552;-70
2023/05/24 00:10:28;;;;;;;5.93;4.60;;;13.00;93.20;;;;;;5010118;28;20442;-70
2023/05/24 00:12:56;;;;;;;5.70;5.13;;;12.90;93.20;;;;;;5010307;28;20896;-71
2023/05/24 00:15:24;;;;;;;8.03;4.30;;;12.90;93.30;;;;;;5010240;28;20444;-71
2023/05/24 00:17:53;;;;;;;5.63;4.07;;;12.90;93.30;;;;;;5009303;28;20465;-71
2023/05/24 00:20:21;;;;;;;5.30;4.50;;;13.00;93.10;;;;;;5010113;28;21166;-71
2023/05/24 00:22:49;;;;;;;4.47;4.07;;;12.90;92.90;;;;;;5009740;28;20487;-71
2023/05/24 00:25:17;;;;;;;4.90;4.00;;;13.00;92.90;;;;;;5010001;28;20457;-71
2023/05/24 00:27:45;;;;;;;4.50;3.80;;;13.00;91.50;;;;;;5009851;28;20472;-71
2023/05/24 00:30:13;;;;;;;5.17;4.70;;;13.00;90.90;;;;;;5009956;28;20448;-70
2023/05/24 00:32:41;;;;;;;5.80;3.40;;;13.00;91.20;;;;;;5009722;28;20499;-70
2023/05/24 00:35:10;;;;;;;7.40;4.43;;;13.00;91.40;;;;;;5009881;28;21011;-71
2023/05/24 00:37:40;;;;;;;8.60;4.60;;;13.00;91.70;;;;;;5009701;28;20479;-71
2023/05/24 00:40:09;;;;;;;5.53;3.90;;;12.90;92.00;;;;;;5009773;28;20508;-71
2023/05/24 00:42:37;;;;;;;6.20;3.90;;;12.90;92.40;;;;;;5009553;28;20489;-71
2023/05/24 00:45:07;;;;;;;5.60;4.43;;;12.90;92.80;;;;;;5009930;28;20454;-71
2023/05/24 00:47:35;;;;;;;8.43;4.17;;;12.90;92.30;;;;;;5009919;28;20472;-71
2023/05/24 00:50:03;;;;;;;5.13;4.63;;;12.90;90.70;;;;;;5010004;28;20443;-71
2023/05/24 00:52:33;;;;;;;7.80;4.37;;;12.90;90.20;;;;;;5009505;28;20826;-71
2023/05/24 00:55:01;;;;;;;7.03;4.60;;;12.80;88.90;;;;;;5009957;28;20442;-71
2023/05/24 00:57:29;;;;;;;6.67;4.60;;;12.70;88.00;;;;;;5009417;28;20501;-71
2023/05/24 00:59:58;;;;;;;5.60;4.03;;;12.70;87.80;;;;;;5009279;28;20438;-71
2023/05/24 01:02:26;;;;;;;6.33;5.10;;;12.60;88.40;;;;;;5009717;28;20472;-71
2023/05/24 01:04:55;;;;;;;10.20;5.63;;;12.50;88.40;;;;;;5009443;28;20486;-71
2023/05/24 01:07:36;;;;;;;6.33;4.33;;;12.50;89.10;;;;;;5009937;28;20493;-71
2023/05/24 01:10:14;;;;;;;8.10;4.60;;;12.50;88.80;;;;;;5009766;28;20431;-71
2023/05/24 01:12:53;;;;;;;6.80;5.00;;;12.40;89.00;;;;;;5009761;28;20448;-71
2023/05/24 01:15:27;;;;;;;9.43;5.20;;;12.40;88.20;;;;;;5009939;28;20451;-71
2023/05/24 01:18:04;;;;;;;6.20;4.50;;;12.40;86.80;;;;;;5009087;28;20475;-71
2023/05/24 01:20:33;;;;;;;8.20;5.00;;;12.40;85.60;;;;;;5009636;28;20435;-71
2023/05/24 01:23:14;;;;;;;7.83;4.70;;;12.40;85.50;;;;;;5008594;28;20477;-71
2023/05/24 01:25:50;;;;;;;9.30;4.53;;;12.40;84.50;;;;;;5009198;28;20447;-71
2023/05/24 01:28:20;;;;;;;7.90;4.43;;;12.40;84.80;;;;;;5009256;28;20514;-70
2023/05/24 01:30:48;;;;;;;10.10;5.20;;;12.40;84.90;;;;;;5009360;28;20464;-70
2023/05/24 01:33:19;;;;;;;8.33;4.60;;;12.40;85.50;;;;;;5009417;28;20453;-70
2023/05/24 01:35:47;;;;;;;9.50;4.93;;;12.30;85.80;;;;;;5009273;28;20901;-70
2023/05/24 01:38:15;;;;;;;10.10;5.07;;;12.30;86.30;;;;;;5009392;28;20490;-71
2023/05/24 01:40:46;;;;;;;12.00;5.83;;;12.30;86.80;;;;;;5013008;28;20457;-70
2023/05/24 01:43:18;;;;;;;12.27;4.97;;;12.30;88.00;;;;;;5012832;28;20553;-70
2023/05/24 01:45:57;;;;;;;6.10;4.80;;;12.20;88.50;;;;;;5012883;28;20446;-71
2023/05/24 01:48:37;;;;;;;9.30;4.67;;;12.20;88.70;;;;;;5013037;28;20473;-71
2023/05/24 01:51:10;;;;;;;7.70;4.90;;;12.20;88.90;;;;;;5013342;28;21225;-71
2023/05/24 01:53:41;;;;;;;6.03;4.80;;;12.20;89.10;;;;;;5012896;28;20476;-70
2023/05/24 01:56:11;;;;;;;6.63;4.93;;;12.20;89.50;;;;;;5013408;28;20446;-70
2023/05/24 01:58:42;;;;;;;8.00;4.03;;;12.20;89.50;;;;;;5012708;28;20466;-70
2023/05/24 02:01:12;;;;;;;9.40;4.57;;;12.20;89.10;;;;;;5012479;28;20443;-71
2023/05/24 02:03:41;;;;;;;7.73;4.33;;;12.10;89.80;;;;;;5011302;28;20479;-70
2023/05/24 02:06:09;;;;;;;6.50;3.83;;;12.10;89.80;;;;;;5012744;28;20455;-70
2023/05/24 02:08:37;;;;;;;6.07;4.23;;;12.10;89.30;;;;;;5012509;28;20458;-70
2023/05/24 02:11:05;;;;;;;8.37;4.67;;;12.10;89.30;;;;;;5012389;28;21016;-71
2023/05/24 02:13:33;;;;;;;9.37;4.63;;;12.10;89.40;;;;;;5012259;28;20446;-71
2023/05/24 02:16:03;;;;;;;5.20;4.40;;;12.10;90.00;;;;;;5012312;28;20450;-71
2023/05/24 02:18:33;;;;;;;7.90;4.27;;;12.00;90.20;;;;;;5012457;28;20492;-71
2023/05/24 02:21:02;;;;;;;9.47;5.10;;;12.00;90.10;;;;;;5012165;28;21154;-72
2023/05/24 02:23:30;;;;;;;8.63;4.47;;;12.00;89.90;;;;;;5012346;28;20979;-71
2023/05/24 02:25:58;;;;;;;6.50;5.90;;;11.90;89.90;;;;;;5012530;28;20499;-70
2023/05/24 02:28:27;;;;;;;7.10;5.20;;;11.90;89.90;;;;;;5011930;28;20507;-71
2023/05/24 02:30:55;;;;;;;9.83;4.57;;;11.80;90.00;;;;;;5012311;28;20474;-72
2023/05/24 02:33:24;;;;;;;7.73;4.90;;;11.80;90.10;;;;;;5011577;28;20479;-71
2023/05/24 02:35:53;;;;;;;10.00;5.63;;;11.70;90.20;;;;;;5012265;28;20441;-70
2023/05/24 02:38:21;;;;;;;9.63;4.87;;;11.70;90.40;;;;;;5012138;28;20458;-70
2023/05/24 02:40:49;;;;;;;9.57;5.43;;;11.70;90.50;;;;;;5012130;28;20442;-71
2023/05/24 02:43:17;;;;;;;10.10;5.17;;;11.70;90.40;;;;;;5011387;28;20529;-71
2023/05/24 02:45:45;;;;;;;7.53;4.43;;;11.70;90.40;;;;;;5011712;28;21238;-70
2023/05/24 02:48:13;;;;;;;9.00;4.83;;;11.70;90.70;;;;;;5011819;28;20467;-71
2023/05/24 02:50:41;;;;;;;12.63;5.80;;;11.70;90.40;;;;;;5011386;28;20445;-71
2023/05/24 02:53:11;;;;;;;32.40;7.43;;;11.70;90.20;;;;;;5011653;28;20535;-71
2023/05/24 02:55:39;;;;;;;9.03;5.00;;;11.70;90.20;;;;;;5011559;28;20834;-71
2023/05/24 02:58:07;;;;;;;12.00;5.53;;;11.70;90.40;;;;;;5011684;28;20470;-71
2023/05/24 03:00:35;;;;;;;10.33;5.00;;;11.70;90.30;;;;;;5011564;28;20480;-71
2023/05/24 03:03:03;;;;;;;7.30;5.23;;;11.70;90.30;;;;;;5010864;28;20441;-71
2023/05/24 03:05:32;;;;;;;5.23;4.57;;;11.70;90.40;;;;;;5011707;28;20482;-71
2023/05/24 03:08:00;;;;;;;9.73;5.37;;;11.70;90.40;;;;;;5011441;28;20484;-71
2023/05/24 03:10:29;;;;;;;8.93;5.43;;;11.70;90.40;;;;;;5011362;28;20447;-71
2023/05/24 03:12:57;;;;;;;9.53;5.10;;;11.70;90.60;;;;;;5011053;28;20934;-71
2023/05/24 03:15:25;;;;;;;7.50;4.77;;;11.70;90.30;;;;;;5010679;28;20456;-71
2023/05/24 03:17:53;;;;;;;8.07;4.97;;;11.70;90.50;;;;;;5011383;28;21080;-71
2023/05/24 03:20:22;;;;;;;10.80;5.10;;;11.60;90.50;;;;;;5010122;28;20532;-72
2023/05/24 03:22:50;;;;;;;10.83;5.90;;;11.60;90.40;;;;;;5010314;28;20455;-71
2023/05/24 03:25:18;;;;;;;10.33;5.50;;;11.60;90.50;;;;;;5010901;28;20470;-71
2023/05/24 03:27:48;;;;;;;8.10;5.40;;;11.60;90.60;;;;;;5010672;28;20983;-71
2023/05/24 03:30:16;;;;;;;9.40;5.37;;;11.50;91.00;;;;;;5010779;28;21017;-71
2023/05/24 03:32:44;;;;;;;9.50;5.23;;;11.50;90.90;;;;;;5010623;28;20534;-71
2023/05/24 03:35:12;;;;;;;11.63;5.17;;;11.40;91.00;;;;;;5010817;28;21010;-71
2023/05/24 03:37:40;;;;;;;9.73;4.90;;;11.40;91.10;;;;;;5010489;28;20478;-71
2023/05/24 03:40:09;;;;;;;10.27;5.33;;;11.40;91.30;;;;;;5010827;28;20500;-70
2023/05/24 03:42:37;;;;;;;8.43;5.77;;;11.30;91.50;;;;;;5010059;28;21030;-70
2023/05/24 03:45:07;;;;;;;15.07;5.67;;;11.30;91.70;;;;;;5010714;28;21105;-70
2023/05/24 03:47:35;;;;;;;10.47;5.87;;;11.20;91.80;;;;;;5011090;28;21055;-70
2023/05/24 03:50:04;;;;;;;9.40;6.87;;;11.20;91.90;;;;;;5010323;28;20456;-70
2023/05/24 03:52:32;;;;;;;11.20;5.27;;;11.20;92.00;;;;;;5010536;28;20506;-70
2023/05/24 03:55:00;;;;;;;8.90;5.33;;;11.20;92.00;;;;;;5010511;28;20943;-70
2023/05/24 03:57:28;;;;;;;8.83;5.70;;;11.10;92.10;;;;;;5010573;28;20469;-70
2023/05/24 03:59:56;;;;;;;11.23;5.60;;;11.10;92.00;;;;;;5010647;28;20548;-70
2023/05/24 04:02:25;;;;;;;11.50;5.53;;;11.10;92.20;;;;;;5009811;28;20864;-70
2023/05/24 04:04:53;;;;;;;10.13;6.00;;;11.10;92.40;;;;;;5010438;28;20480;-70
2023/05/24 04:07:23;;;;;;;9.20;5.50;;;11.10;92.30;;;;;;5009735;28;20465;-70
2023/05/24 04:09:51;;;;;;;7.37;5.40;;;11.10;92.40;;;;;;5010588;28;20447;-70
2023/05/24 04:12:19;;;;;;;16.10;5.63;;;11.10;92.50;;;;;;5010380;28;21117;-70
2023/05/24 04:14:47;;;;;;;7.50;5.33;;;11.10;92.50;;;;;;5009985;28;20939;-70
2023/05/24 04:17:15;;;;;;;10.90;5.00;;;11.10;92.50;;;;;;5009799;28;20458;-70
2023/05/24 04:19:46;;;;;;;11.83;5.67;;;11.10;92.50;;;;;;5009776;28;20968;-70
2023/05/24 04:22:13;;;;;;;11.43;5.57;;;11.20;92.50;;;;;;5010368;28;20441;-70
2023/05/24 04:24:41;;;;;;;7.10;5.70;;;11.20;92.70;;;;;;5010034;28;20899;-71
2023/05/24 04:27:09;;;;;;;11.07;5.70;;;11.10;92.80;;;;;;5010286;28;20465;-71
2023/05/24 04:29:39;;;;;;;10.57;6.80;;;11.20;92.90;;;;;;5009850;28;20891;-72
2023/05/24 04:32:08;;;;;;;8.00;5.20;;;11.20;92.90;;;;;;5009768;28;20444;-71
2023/05/24 04:34:41;;;;;;;9.90;5.77;;;11.20;92.70;;;;;;5009776;28;20446;-71
2023/05/24 04:37:10;;;;;;;11.40;5.67;;;11.20;92.70;;;;;;5009595;28;20497;-71
2023/05/24 04:39:38;;;;;;;10.70;5.50;;;11.20;92.80;;;;;;5010492;28;21013;-71
2023/05/24 04:42:07;;;;;;;9.87;5.63;;;11.30;93.00;;;;;;5009950;28;20515;-71
2023/05/24 04:44:35;;;;;;;10.57;5.30;;;11.20;92.70;;;;;;5009504;28;21254;-71
2023/05/24 04:47:04;;;;;;;14.00;5.47;;;11.30;92.90;;;;;;5009948;28;20469;-72
2023/05/24 04:49:32;;;;;;;11.10;6.00;;;11.30;92.90;;;;;;5009806;28;20448;-71
2023/05/24 04:52:00;;;;;;;6.50;5.80;;;11.30;92.60;;;;;;5009670;28;20449;-71
2023/05/24 04:54:29;;;;;;;10.30;5.83;;;11.30;92.60;;;;;;5009299;28;20456;-71
2023/05/24 04:56:57;;;;;;;10.07;5.33;;;11.40;92.70;;;;;;5009285;28;20527;-71
2023/05/24 04:59:28;;;;;;;7.43;5.47;;;11.40;92.70;;;;;;5009876;28;20476;-72
2023/05/24 05:01:56;;;;;;;15.27;6.73;;;11.30;93.20;;;;;;5009786;28;20534;-71
2023/05/24 05:04:24;;;;;;;8.73;6.23;;;11.40;93.00;;;;;;5009503;28;20827;-72
2023/05/24 05:06:52;;;;;;;17.87;7.20;;;11.40;92.60;;;;;;5009532;28;20492;-72
2023/05/24 05:09:21;;;;;;;11.87;5.33;;;11.40;92.60;;;;;;5009550;28;20449;-72
2023/05/24 05:11:50;;;;;;;11.47;6.23;;;11.40;92.40;;;;;;5009638;28;20452;-72
2023/05/24 05:14:18;;;;;;;13.97;5.63;;;11.40;92.50;;;;;;5009693;28;20452;-71
2023/05/24 05:16:46;;;;;;;10.90;6.30;;;11.40;92.40;;;;;;5013302;28;20551;-71
2023/05/24 05:19:14;;;;;;;10.20;6.00;;;11.40;92.70;;;;;;5013446;28;20972;-72
2023/05/24 05:21:42;;;;;;;10.07;6.20;;;11.50;92.60;;;;;;5013024;28;20854;-72
2023/05/24 05:24:11;;;;;;;9.50;5.70;;;11.50;92.30;;;;;;5012594;28;20457;-71
2023/05/24 05:26:40;;;;;;;12.43;5.80;;;11.50;91.80;;;;;;5013577;28;20477;-71
2023/05/24 05:29:09;;;;;;;10.33;5.80;;;11.50;91.50;;;;;;5007868;28;20452;-73
2023/05/24 05:31:38;;;;;;;9.53;4.80;;;11.50;91.70;;;;;;4997958;28;20533;-72
2023/05/24 05:34:08;;;;;;;14.47;5.77;;;11.50;92.00;;;;;;5002658;28;20445;-72
2023/05/24 05:36:39;;;;;;;8.63;5.90;;;11.60;92.00;;;;;;5008798;28;20527;-72
2023/05/24 05:39:10;;;;;;;10.10;5.60;;;11.60;91.40;;;;;;5013770;28;20552;-72
2023/05/24 05:41:42;;;;;;;10.17;5.10;;;11.70;91.20;;;;;;5010292;28;21165;-73
2023/05/24 05:44:14;;;;;;;13.07;6.47;;;11.70;90.90;;;;;;4997986;28;20433;-73
2023/05/24 05:46:44;;;;;;;15.07;7.07;;;11.70;91.00;;;;;;4994860;28;20891;-72
2023/05/24 05:49:14;;;;;;;10.40;5.70;;;11.80;90.30;;;;;;4995484;28;20441;-72
2023/05/24 05:51:42;;;;;;;9.97;5.53;;;11.90;90.40;;;;;;5033375;28;20483;-70
2023/05/24 05:54:14;;;;;;;11.37;5.90;;;12.00;90.20;;;;;;5002249;28;20449;-70
2023/05/24 05:56:46;;;;;;;12.97;5.90;;;12.10;90.30;;;;;;5013782;28;20448;-71
2023/05/24 05:59:16;;;;;;;10.80;4.90;;;12.10;89.50;;;;;;5009305;28;20508;-70
2023/05/24 06:01:46;;;;;;;11.53;5.50;;;12.20;88.10;;;;;;5008591;28;20474;-70
2023/05/24 06:04:14;;;;;;;10.00;5.10;;;12.20;88.00;;;;;;5003704;28;20444;-70
2023/05/24 06:06:44;;;;;;;12.73;5.27;;;12.20;89.90;;;;;;4999376;28;20520;-71
2023/05/24 06:09:12;;;;;;;9.60;5.10;;;12.30;87.80;;;;;;4993620;28;20460;-71
2023/05/24 06:11:43;;;;;;;6.63;4.60;;;12.40;88.20;;;;;;4993214;28;20487;-71
2023/05/24 06:14:12;;;;;;;9.20;4.70;;;12.30;85.70;;;;;;4992841;28;20447;-70
2023/05/24 06:16:42;;;;;;;7.93;4.47;;;12.20;87.10;;;;;;4993200;28;20482;-71
2023/05/24 06:19:10;;;;;;;7.60;4.70;;;12.20;87.10;;;;;;4994142;28;21223;-71
2023/05/24 06:21:39;;;;;;;10.17;4.77;;;12.30;88.00;;;;;;4993213;28;20982;-70
2023/05/24 06:24:09;;;;;;;9.90;6.03;;;12.30;85.60;;;;;;4994375;28;20431;-70
2023/05/24 06:26:37;;;;;;;11.13;4.70;;;12.20;85.30;;;;;;5017463;28;20516;-71
2023/05/24 06:29:05;;;;;;;13.80;5.60;;;12.30;85.50;;;;;;5012153;28;20448;-71
2023/05/24 06:31:34;;;;;;;9.10;5.13;;;12.30;86.20;;;;;;5010819;28;20449;-71
2023/05/24 06:34:03;;;;;;;9.43;5.40;;;12.40;86.70;;;;;;5011020;28;20451;-72
2023/05/24 06:36:32;;;;;;;10.83;5.60;;;12.40;86.20;;;;;;5012990;28;20453;-70
2023/05/24 06:39:01;;;;;;;9.10;5.20;;;12.50;85.90;;;;;;5013968;28;20473;-71
2023/05/24 06:41:29;;;;;;;11.93;5.40;;;12.50;85.20;;;;;;5012997;28;20443;-71
2023/05/24 06:43:57;;;;;;;8.30;4.50;;;12.60;84.20;;;;;;5013897;28;20500;-70
2023/05/24 06:46:25;;;;;;;14.63;5.37;;;12.50;85.60;;;;;;5013910;28;20475;-71
2023/05/24 06:48:53;;;;;;;11.10;5.03;;;12.60;84.90;;;;;;5017865;28;20459;-71
2023/05/24 06:51:22;;;;;;;11.00;4.40;;;12.50;84.90;;;;;;5011785;28;20450;-70
2023/05/24 06:53:50;;;;;;;7.43;4.67;;;12.50;88.20;;;;;;5027651;28;20442;-71
2023/05/24 06:56:18;;;;;;;13.63;5.27;;;12.50;82.50;;;;;;5027840;28;20442;-70
2023/05/24 06:58:46;;;;;;;8.93;5.30;;;12.30;83.60;;;;;;5015130;28;20462;-70
2023/05/24 07:01:15;;;;;;;12.33;5.07;;;12.30;84.10;;;;;;5025516;28;20966;-70
2023/05/24 07:03:43;;;;;;;8.30;5.13;;;12.30;84.90;;;;;;5016296;28;20842;-70
2023/05/24 07:06:12;;;;;;;11.80;5.03;;;12.30;84.50;;;;;;5010264;28;20503;-70
2023/05/24 07:08:42;;;;;;;9.23;5.10;;;12.30;85.90;;;;;;5011181;28;20484;-70
2023/05/24 07:11:11;;;;;;;11.63;5.93;;;12.30;87.50;;;;;;5011567;28;20446;-70
2023/05/24 07:13:39;;;;;;;10.10;5.43;;;12.30;87.30;;;;;;5010534;28;20446;-70
2023/05/24 07:16:07;;;;;;;11.37;6.07;;;12.30;86.30;;;;;;5011039;28;20453;-71
2023/05/24 07:18:40;;;;;;;9.47;5.93;;;12.20;86.70;;;;;;5011298;28;20470;-70
2023/05/24 07:21:08;;;;;;;7.53;5.17;;;12.20;87.20;;;;;;5011922;28;20445;-70
2023/05/24 07:23:36;;;;;;;13.40;5.77;;;12.30;87.60;;;;;;5011207;28;20453;-71
2023/05/24 07:26:07;;;;;;;12.50;5.53;;;12.30;87.60;;;;;;5011656;28;20474;-70
2023/05/24 07:28:36;;;;;;;13.10;5.10;;;12.40;87.00;;;;;;5011620;28;20470;-70
2023/05/24 07:31:06;;;;;;;8.93;4.93;;;12.40;86.50;;;;;;5011306;28;20446;-71
2023/05/24 07:33:36;;;;;;;10.17;5.70;;;12.50;86.20;;;;;;5010892;28;20518;-70
2023/05/24 07:36:06;;;;;;;11.77;5.57;;;12.70;84.40;;;;;;5010672;28;20541;-70
2023/05/24 07:38:34;;;;;;;9.10;5.53;;;13.00;83.50;;;;;;5010784;28;21079;-71
2023/05/24 07:41:03;;;;;;;15.33;5.77;;;13.30;82.90;;;;;;5011134;28;20443;-71
2023/05/24 07:43:33;;;;;;;9.77;5.60;;;13.50;80.80;;;;;;5010859;28;20549;-71
2023/05/24 07:46:01;;;;;;;14.93;5.37;;;13.50;81.00;;;;;;5010992;28;20447;-71
2023/05/24 07:48:29;;;;;;;12.20;5.40;;;13.30;79.90;;;;;;5011175;28;20460;-69
2023/05/24 07:50:56;;;;;;;10.47;5.37;;;13.10;81.20;;;;;;5011164;28;20448;-70
2023/05/24 07:53:27;;;;;;;7.77;5.43;;;13.00;81.80;;;;;;5010856;28;20502;-69
2023/05/24 07:55:55;;;;;;;14.23;5.83;;;13.00;81.10;;;;;;5011145;28;20862;-70
2023/05/24 07:58:23;;;;;;;10.70;5.97;;;13.10;81.40;;;;;;5010817;28;20467;-69
2023/05/24 08:00:52;;;;;;;15.30;5.93;;;13.20;80.90;;;;;;5011069;28;20458;-71
2023/05/24 08:03:20;;;;;;;13.43;5.73;;;13.20;81.90;;;;;;5010589;28;20444;-69
2023/05/24 08:05:51;;;;;;;17.20;6.00;;;13.20;81.50;;;;;;5010420;28;20452;-70
2023/05/24 08:08:19;;;;;;;9.77;5.50;;;13.20;81.00;;;;;;5010092;28;20489;-71
2023/05/24 08:10:47;;;;;;;7.83;4.93;;;13.00;81.20;;;;;;5010195;28;20907;-69
2023/05/24 08:13:15;;;;;;;12.80;5.80;;;12.90;82.50;;;;;;5009935;28;20468;-70
2023/05/24 08:15:43;;;;;;;10.57;5.50;;;12.80;82.70;;;;;;5010428;28;20482;-69
2023/05/24 08:18:13;;;;;;;7.47;5.03;;;12.80;83.00;;;;;;5010187;28;20465;-70
2023/05/24 08:20:41;;;;;;;8.03;5.27;;;12.90;83.70;;;;;;5010450;28;20455;-69
2023/05/24 08:23:09;;;;;;;10.20;5.60;;;12.90;83.50;;;;;;5010402;28;20894;-71
2023/05/24 08:25:37;;;;;;;11.10;5.60;;;12.80;82.90;;;;;;5010557;28;20446;-70
2023/05/24 08:28:09;;;;;;;10.13;5.87;;;12.70;82.60;;;;;;5010213;28;20493;-71
2023/05/24 08:30:38;;;;;;;10.47;4.90;;;12.80;83.10;;;;;;5010554;28;20446;-71
2023/05/24 08:33:06;;;;;;;10.73;4.90;;;13.00;82.50;;;;;;5009821;28;20976;-71
2023/05/24 08:35:35;;;;;;;16.30;5.27;;;13.50;81.50;;;;;;5010186;28;20589;-71
2023/05/24 08:38:03;;;;;;;12.10;5.60;;;13.60;79.60;;;;;;5009914;28;20473;-71
2023/05/24 08:40:31;;;;;;;10.27;5.30;;;13.70;79.70;;;;;;5010188;28;20453;-71
2023/05/24 08:43:01;;;;;;;8.77;5.60;;;13.80;78.10;;;;;;5009662;28;21013;-71
2023/05/24 08:45:30;;;;;;;6.30;4.90;;;13.80;76.80;;;;;;5009878;28;21218;-71
2023/05/24 08:48:02;;;;;;;9.27;5.03;;;14.10;76.70;;;;;;5009938;28;20477;-71
2023/05/24 08:50:31;;;;;;;8.03;5.17;;;14.30;75.50;;;;;;5009911;28;20816;-68
2023/05/24 08:53:02;;;;;;;11.77;6.67;;;14.40;75.70;;;;;;5010002;28;20441;-69
2023/05/24 08:55:31;;;;;;;8.30;5.27;;;14.30;74.90;;;;;;5010135;28;20441;-68
2023/05/24 08:58:01;;;;;;;12.43;5.60;;;14.50;74.60;;;;;;5009964;28;20551;-68
2023/05/24 09:00:29;;;;;;;12.13;8.17;;;14.40;74.30;;;;;;5009857;28;20445;-68
2023/05/24 09:02:58;;;;;;;13.30;5.77;;;14.40;74.90;;;;;;5009427;28;20541;-68
2023/05/24 09:05:29;;;;;;;13.50;5.97;;;14.50;75.30;;;;;;5009994;28;21148;-68
2023/05/24 09:07:59;;;;;;;9.27;5.57;;;14.50;73.50;;;;;;5009223;28;20483;-68
2023/05/24 09:10:29;;;;;;;9.53;5.90;;;14.30;73.20;;;;;;5009990;28;20441;-68
2023/05/24 09:13:19;;;;;;;8.30;4.60;;;14.20;74.90;;;;;;5009275;28;20804;-67
2023/05/24 09:15:47;;;;;;;10.73;5.37;;;14.20;75.10;;;;;;5010004;28;20489;-68
2023/05/24 09:18:15;;;;;;;9.13;5.50;;;14.30;74.70;;;;;;5009803;28;20462;-68
2023/05/24 09:20:43;;;;;;;9.30;6.40;;;14.00;74.70;;;;;;5009928;28;20441;-68
2023/05/24 09:23:13;;;;;;;10.93;5.03;;;13.80;74.70;;;;;;5009564;28;20451;-68
2023/05/24 09:25:45;;;;;;;13.20;5.23;;;13.80;75.10;;;;;;5009675;28;21178;-69
2023/05/24 09:28:14;;;;;;;11.80;6.17;;;13.70;75.60;;;;;;5009491;28;20564;-69
2023/05/24 09:30:44;;;;;;;6.00;5.43;;;13.80;75.40;;;;;;5009822;28;20519;-68
2023/05/24 09:33:12;;;;;;;7.77;5.90;;;13.70;75.30;;;;;;5009625;28;20467;-69
2023/05/24 09:35:43;;;;;;;9.60;5.30;;;13.60;77.10;;;;;;5009669;28;20454;-69
2023/05/24 09:38:18;;;;;;;15.23;5.40;;;13.60;78.00;;;;;;5009619;28;20476;-69
2023/05/24 09:40:47;;;;;;;7.97;5.63;;;13.70;77.60;;;;;;5009555;28;20992;-69
2023/05/24 09:43:15;;;;;;;9.03;5.50;;;13.50;77.60;;;;;;5009247;28;20530;-68
2023/05/24 09:45:46;;;;;;;6.70;5.07;;;13.40;77.40;;;;;;5009770;28;20439;-68
2023/05/24 09:48:16;;;;;;;12.60;6.00;;;13.40;78.50;;;;;;5009373;28;20487;-68
2023/05/24 09:50:46;;;;;;;12.90;6.07;;;13.40;79.10;;;;;;5009504;28;20449;-68
2023/05/24 09:53:17;;;;;;;9.47;6.93;;;13.40;78.10;;;;;;5009578;28;20448;-69
2023/05/24 09:55:47;;;;;;;10.30;6.23;;;13.20;77.40;;;;;;5009898;28;20490;-68
2023/05/24 09:58:17;;;;;;;8.07;5.80;;;13.00;78.40;;;;;;5009694;28;20561;-68
2023/05/24 10:00:45;;;;;;;8.80;5.70;;;13.00;80.00;;;;;;5011821;28;20481;-68
2023/05/24 10:03:14;;;;;;;11.13;6.50;;;13.10;80.60;;;;;;5012510;28;20479;-68
2023/05/24 10:05:45;;;;;;;8.97;6.10;;;13.20;80.20;;;;;;5013121;28;20502;-68
2023/05/24 10:08:14;;;;;;;10.30;5.47;;;13.30;79.30;;;;;;5012524;28;20855;-68
2023/05/24 10:10:47;;;;;;;16.57;7.00;;;13.30;79.50;;;;;;5012720;28;21164;-69
2023/05/24 10:13:17;;;;;;;10.70;5.97;;;13.30;79.60;;;;;;5012258;28;20491;-68
2023/05/24 10:15:45;;;;;;;11.70;5.57;;;13.40;79.30;;;;;;5012528;28;20448;-68
2023/05/24 10:18:13;;;;;;;14.93;5.73;;;13.40;77.50;;;;;;5006075;28;20485;-68
2023/05/24 10:20:42;;;;;;;15.93;6.57;;;13.40;77.50;;;;;;5008540;28;20533;-68
2023/05/24 10:23:14;;;;;;;11.30;5.80;;;13.60;76.20;;;;;;5008173;28;21029;-69
2023/05/24 10:25:52;;;;;;;10.47;5.70;;;13.80;77.50;;;;;;5008338;28;20491;-69
2023/05/24 10:28:23;;;;;;;7.70;6.00;;;13.90;76.60;;;;;;5008151;28;20902;-69
2023/05/24 10:31:02;;;;;;;10.20;5.97;;;13.90;75.40;;;;;;5008430;28;20448;-69
2023/05/24 10:33:32;;;;;;;12.90;6.37;;;13.80;75.00;;;;;;5007930;28;20531;-69
2023/05/24 10:36:00;;;;;;;9.13;5.87;;;13.80;76.50;;;;;;5008030;28;20448;-69
2023/05/24 10:38:30;;;;;;;13.73;5.87;;;13.90;75.60;;;;;;5008028;28;20894;-69
2023/05/24 10:40:59;;;;;;;13.67;6.23;;;14.10;75.00;;;;;;5004698;28;20458;-69
2023/05/24 10:43:27;;;;;;;14.50;7.13;;;14.20;74.60;;;;;;5006304;28;21098;-70
2023/05/24 10:45:56;;;;;;;9.60;5.83;;;14.10;74.20;;;;;;5006383;28;20454;-69
2023/05/24 10:48:37;;;;;;;9.83;6.30;;;14.10;75.60;;;;;;5006083;28;20927;-69
2023/05/24 10:51:35;;;;;;;8.97;5.77;;;14.40;72.70;;;;;;5006387;28;20952;-69
2023/05/24 10:54:17;;;;;;;11.03;6.10;;;14.50;71.90;;;;;;5006289;28;20434;-69
2023/05/24 10:56:48;;;;;;;12.70;6.67;;;14.50;70.00;;;;;;5006482;28;20899;-69
2023/05/24 10:59:28;;;;;;;6.63;5.50;;;14.30;69.50;;;;;;5005281;28;20492;-68
2023/05/24 11:01:57;;;;;;;11.37;5.93;;;14.50;70.00;;;;;;5006536;28;20553;-69
2023/05/24 11:04:26;;;;;;;9.50;6.50;;;14.40;68.20;;;;;;5005921;28;20445;-69
2023/05/24 11:07:00;;;;;;;9.53;5.63;;;14.50;67.60;;;;;;5006000;28;20458;-69
2023/05/24 11:09:28;;;;;;;7.77;4.77;;;14.70;66.20;;;;;;5006050;28;20491;-69
2023/05/24 11:12:02;;;;;;;9.03;6.13;;;15.00;65.20;;;;;;5005284;28;20501;-69
2023/05/24 11:14:31;;;;;;;15.03;5.00;;;15.40;66.00;;;;;;5006103;28;20445;-69
2023/05/24 11:17:00;;;;;;;8.10;5.27;;;15.80;62.40;;;;;;5005841;28;20537;-69
2023/05/24 11:19:34;;;;;;;9.83;5.33;;;16.20;62.50;;;;;;5006624;28;20465;-68
2023/05/24 11:22:06;;;;;;;11.47;5.40;;;16.90;60.00;;;;;;5005864;28;20436;-69
2023/05/24 11:24:35;;;;;;;14.17;5.83;;;17.50;58.20;;;;;;5006033;28;20879;-69
2023/05/24 11:27:04;;;;;;;7.63;4.33;;;17.80;57.10;;;;;;5006074;28;20461;-69
2023/05/24 11:29:33;;;;;;;11.30;5.60;;;18.00;56.80;;;;;;5006264;28;20513;-70
2023/05/24 11:32:06;;;;;;;10.43;5.60;;;18.20;55.70;;;;;;5005387;28;20436;-69
2023/05/24 11:34:35;;;;;;;8.33;5.00;;;17.40;55.80;;;;;;5005315;28;20500;-68
2023/05/24 11:37:04;;;;;;;8.83;5.73;;;16.20;58.20;;;;;;5005524;28;20529;-72
2023/05/24 11:39:34;;;;;;;6.67;5.00;;;15.90;59.10;;;;;;5006013;28;21251;-69
2023/05/24 11:42:06;;;;;;;8.83;5.33;;;15.80;59.20;;;;;;5006093;28;20447;-69
2023/05/24 11:44:36;;;;;;;7.10;5.00;;;15.90;58.70;;;;;;5005532;28;20481;-69
2023/05/24 11:47:06;;;;;;;7.30;5.03;;;16.30;57.80;;;;;;5003655;28;20467;-69
2023/05/24 11:49:35;;;;;;;8.20;5.10;;;16.60;58.10;;;;;;5004442;28;20987;-69
2023/05/24 11:52:03;;;;;;;9.53;5.23;;;16.30;57.80;;;;;;5005362;28;20959;-69
2023/05/24 11:54:33;;;;;;;11.10;5.37;;;16.70;57.10;;;;;;5005146;28;20945;-70
2023/05/24 11:57:02;;;;;;;9.00;4.90;;;17.10;57.10;;;;;;5004900;28;20467;-69
2023/05/24 11:59:31;;;;;;;10.60;5.53;;;17.50;54.70;;;;;;5004938;28;20510;-70
2023/05/24 12:02:03;;;;;;;9.70;4.20;;;18.10;53.40;;;;;;5005565;28;20434;-72
2023/05/24 12:04:33;;;;;;;10.77;5.20;;;18.70;52.70;;;;;;5005406;28;20452;-69
2023/05/24 12:07:01;;;;;;;12.13;5.40;;;19.00;51.70;;;;;;5005124;28;20461;-69
2023/05/24 12:09:30;;;;;;;9.30;4.67;;;19.80;52.20;;;;;;5005302;28;20478;-70
2023/05/24 12:11:58;;;;;;;8.43;4.90;;;20.70;49.60;;;;;;5004706;28;20447;-70
2023/05/24 12:14:29;;;;;;;6.53;4.70;;;21.90;51.10;;;;;;5004971;28;20830;-70
2023/05/24 12:17:00;;;;;;;6.23;4.37;;;22.00;43.10;;;;;;5005631;28;20533;-71
2023/05/24 12:19:33;;;;;;;9.23;4.40;;;21.30;48.80;;;;;;5005304;28;21058;-70
2023/05/24 12:22:03;;;;;;;7.07;4.63;;;20.40;45.00;;;;;;5005277;28;20525;-70
2023/05/24 12:24:32;;;;;;;9.77;5.17;;;19.80;46.40;;;;;;5004519;28;20437;-69
2023/05/24 12:27:05;;;;;;;7.30;4.53;;;19.80;45.70;;;;;;5004817;28;20812;-70
2023/05/24 12:29:35;;;;;;;7.43;4.77;;;19.70;45.50;;;;;;5004577;28;20485;-70
2023/05/24 12:32:10;;;;;;;8.60;4.77;;;19.10;46.90;;;;;;5004788;28;20821;-70
2023/05/24 12:34:40;;;;;;;7.77;4.13;;;18.50;47.50;;;;;;5004161;28;20449;-69
2023/05/24 12:37:09;;;;;;;5.50;4.27;;;18.50;51.00;;;;;;5004292;28;20543;-69
2023/05/24 12:39:38;;;;;;;8.37;3.63;;;18.60;49.50;;;;;;5004142;28;20450;-70
2023/05/24 12:42:07;;;;;;;10.33;4.87;;;19.90;51.50;;;;;;5004650;28;21300;-71
2023/05/24 12:44:37;;;;;;;10.07;4.70;;;21.30;46.10;;;;;;5004272;28;20493;-70
2023/05/24 12:47:08;;;;;;;11.50;5.13;;;22.10;44.40;;;;;;5004485;28;20478;-70
2023/05/24 12:49:36;;;;;;;8.70;3.73;;;22.20;43.50;;;;;;5003685;28;20487;-70
2023/05/24 12:52:04;;;;;;;8.87;5.27;;;22.30;46.80;;;;;;5003724;28;21167;-71
2023/05/24 12:54:33;;;;;;;9.53;5.17;;;23.20;41.70;;;;;;5003811;28;20445;-70